createdAt,value
2022-11-08T00:01:32.306Z,3.05
2022-11-08T00:06:54.411Z,7.57
2022-11-08T00:12:15.100Z,10.60
2022-11-08T00:17:18.043Z,3.33
2022-11-08T00:22:20.128Z,5.38
2022-11-08T00:27:23.295Z,4.68
2022-11-08T00:32:26.518Z,6.30
2022-11-08T00:37:28.185Z,1.35
2022-11-08T00:42:29.906Z,6.57
2022-11-08T00:47:31.560Z,4.60
2022-11-08T00:52:33.241Z,9.95
2022-11-08T00:57:54.103Z,7.30
2022-11-08T01:03:15.004Z,9.05
2022-11-08T01:08:18.061Z,4.80
2022-11-08T01:13:20.561Z,3.47
2022-11-08T01:18:22.370Z,6.75
2022-11-08T01:23:24.051Z,9.20
2022-11-08T01:28:25.709Z,2.55
2022-11-08T01:33:27.466Z,5.82
2022-11-08T01:38:29.140Z,5.47
2022-11-08T01:43:30.751Z,5.75
2022-11-08T01:48:32.462Z,3.70
2022-11-08T01:53:34.607Z,8.10
2022-11-08T01:58:38.507Z,5.65
2022-11-08T02:03:41.614Z,5.82
2022-11-08T02:08:44.816Z,4.10
2022-11-08T02:13:46.559Z,5.60
2022-11-08T02:18:49.530Z,4.00
2022-11-08T02:24:06.903Z,4.82
2022-11-08T02:29:27.671Z,5.40
2022-11-08T02:34:38.433Z,5.82
2022-11-08T02:39:40.127Z,8.73
2022-11-08T02:44:41.835Z,5.10
2022-11-08T02:49:43.630Z,5.18
2022-11-08T02:54:45.404Z,7.32
2022-11-08T02:59:48.749Z,6.13
2022-11-08T03:04:50.395Z,10.93
2022-11-08T03:09:52.125Z,5.93
2022-11-08T03:14:53.805Z,6.60
2022-11-08T03:19:56.221Z,3.17
2022-11-08T03:24:57.887Z,5.78
2022-11-08T03:29:59.544Z,2.80
2022-11-08T03:35:01.207Z,2.95
2022-11-08T03:40:02.987Z,2.63
2022-11-08T03:45:04.884Z,3.42
2022-11-08T03:50:08.243Z,4.82
2022-11-08T03:55:10.963Z,5.18
2022-11-08T04:00:14.343Z,8.57
2022-11-08T04:05:16.593Z,4.43
2022-11-08T04:10:18.525Z,4.10
2022-11-08T04:15:22.832Z,9.02
2022-11-08T04:20:42.843Z,6.20
2022-11-08T04:25:45.376Z,5.50
2022-11-08T04:30:52.721Z,4.55
2022-11-08T04:35:54.436Z,5.15
2022-11-08T04:41:04.326Z,4.18
2022-11-08T04:46:09.232Z,5.43
2022-11-08T04:51:28.621Z,8.18
2022-11-08T04:56:31.356Z,5.35
2022-11-08T05:01:33.221Z,4.20
2022-11-08T05:06:35.002Z,9.68
2022-11-08T05:11:37.203Z,4.07
2022-11-08T05:16:38.896Z,4.78
2022-11-08T05:21:59.211Z,4.78
2022-11-08T05:27:00.882Z,3.08
2022-11-08T05:32:02.572Z,4.25
2022-11-08T05:37:04.343Z,11.80
2022-11-08T05:42:06.118Z,3.95
2022-11-08T05:47:08.134Z,5.60
2022-11-08T05:52:09.825Z,5.07
2022-11-08T05:57:12.488Z,4.72
2022-11-08T06:02:14.307Z,7.97
2022-11-08T06:07:16.184Z,6.63
2022-11-08T06:12:18.091Z,10.50
2022-11-08T06:17:19.750Z,10.55
2022-11-08T06:22:21.824Z,13.15
2022-11-08T06:27:23.805Z,11.27
2022-11-08T06:32:25.489Z,12.35
2022-11-08T06:37:27.195Z,10.15
2022-11-08T06:42:28.978Z,12.73
2022-11-08T06:47:30.636Z,10.48
2022-11-08T06:52:32.491Z,11.73
2022-11-08T06:57:34.312Z,11.05
2022-11-08T07:02:36.272Z,12.02
2022-11-08T07:07:38.454Z,23.80
2022-11-08T07:12:40.265Z,14.30
2022-11-08T07:17:42.091Z,16.58
2022-11-08T07:22:43.791Z,13.25
2022-11-08T07:27:45.482Z,6.90
2022-11-08T07:32:47.216Z,11.85
2022-11-08T07:37:49.011Z,14.98
2022-11-08T07:43:11.401Z,12.88
2022-11-08T07:48:13.986Z,10.73
2022-11-08T07:53:16.141Z,9.90
2022-11-08T07:58:18.027Z,11.40
2022-11-08T08:03:20.076Z,9.52
2022-11-08T08:08:22.648Z,6.75
2022-11-08T08:13:24.316Z,8.52
2022-11-08T08:18:26.169Z,5.72
2022-11-08T08:23:28.976Z,6.03
2022-11-08T08:28:30.713Z,5.05
2022-11-08T08:33:33.311Z,13.00
2022-11-08T08:38:38.688Z,7.38
2022-11-08T08:43:43.230Z,10.82
2022-11-08T08:48:44.887Z,16.52
2022-11-08T08:53:46.547Z,8.43
2022-11-08T09:04:12.790Z,11.10
2022-11-08T09:09:14.460Z,8.80
2022-11-08T09:14:16.133Z,8.75
2022-11-08T09:19:17.838Z,7.30
2022-11-08T09:24:20.138Z,12.13
2022-11-08T09:29:21.867Z,13.00
2022-11-08T09:34:23.656Z,17.58
2022-11-08T09:39:25.456Z,11.27
2022-11-08T09:44:39.086Z,11.60
2022-11-08T09:49:45.881Z,6.28
2022-11-08T09:54:48.683Z,10.13
2022-11-08T09:59:56.549Z,7.50
2022-11-08T10:05:09.474Z,14.27
2022-11-08T10:10:17.035Z,7.68
2022-11-08T10:15:30.254Z,8.25
2022-11-08T10:21:00.619Z,14.05
2022-11-08T10:26:24.151Z,5.93
2022-11-08T10:31:33.146Z,3.65
2022-11-08T10:36:38.852Z,1.77
2022-11-08T10:41:44.725Z,3.85
2022-11-08T10:46:57.532Z,4.38
2022-11-08T10:52:01.379Z,2.33
2022-11-08T10:57:03.147Z,3.05
2022-11-08T11:02:18.918Z,2.03
2022-11-08T11:07:33.220Z,1.98
2022-11-08T11:12:34.879Z,1.65
2022-11-08T11:17:39.086Z,3.00
2022-11-08T11:22:46.665Z,2.25
2022-11-08T11:27:58.440Z,6.18
2022-11-08T11:33:09.406Z,2.28
2022-11-08T11:38:23.702Z,4.47
2022-11-08T11:43:35.948Z,2.47
2022-11-08T11:48:45.844Z,2.42
2022-11-08T11:53:48.967Z,3.35
2022-11-08T11:59:12.655Z,2.58
2022-11-08T12:04:24.359Z,4.55
2022-11-08T12:09:57.730Z,4.25
2022-11-08T12:15:17.307Z,1.48
2022-11-08T12:20:38.668Z,1.90
2022-11-08T12:26:15.445Z,3.10
2022-11-08T12:31:38.883Z,2.83
2022-11-08T12:37:11.735Z,2.47
2022-11-08T12:42:50.789Z,2.70
2022-11-08T12:48:12.205Z,4.10
2022-11-08T12:53:49.048Z,4.47
2022-11-08T12:58:53.542Z,1.50
2022-11-08T13:04:05.796Z,2.03
2022-11-08T13:09:23.399Z,5.05
2022-11-08T13:14:26.126Z,4.00
2022-11-08T13:19:29.751Z,3.13
2022-11-08T13:24:49.814Z,2.83
2022-11-08T13:29:53.319Z,2.58
2022-11-08T13:35:36.382Z,2.30
2022-11-08T13:40:59.664Z,4.22
2022-11-08T13:46:27.001Z,3.30
2022-11-08T13:51:31.144Z,1.90
2022-11-08T13:56:42.300Z,4.93
2022-11-08T14:01:46.784Z,4.10
2022-11-08T14:07:03.469Z,2.03
2022-11-08T14:12:22.853Z,1.55
2022-11-08T14:17:58.481Z,3.20
2022-11-08T14:23:14.728Z,1.45
2022-11-08T14:28:27.776Z,2.72
2022-11-08T14:33:31.657Z,3.30
2022-11-08T14:38:37.920Z,4.40
2022-11-08T14:43:45.363Z,4.53
2022-11-08T14:48:54.777Z,2.60
2022-11-08T14:53:56.760Z,3.90
2022-11-08T14:58:58.479Z,3.30
2022-11-08T15:04:19.156Z,4.43
2022-11-08T15:09:25.961Z,2.88
2022-11-08T15:14:30.933Z,4.97
2022-11-08T15:19:46.483Z,2.65
2022-11-08T15:24:48.586Z,3.17
2022-11-08T15:29:53.923Z,6.65
2022-11-08T15:34:56.898Z,4.22
2022-11-08T15:40:02.919Z,11.60
2022-11-08T15:45:13.700Z,3.80
2022-11-08T15:50:22.699Z,5.05
2022-11-08T15:55:29.645Z,4.80
2022-11-08T16:00:34.983Z,2.97
2022-11-08T16:05:36.817Z,5.57
2022-11-08T16:10:42.510Z,12.50
2022-11-08T16:15:45.752Z,6.55
2022-11-08T16:20:47.625Z,7.97
2022-11-08T16:25:51.306Z,8.07
2022-11-08T16:30:53.746Z,6.05
2022-11-08T16:35:58.608Z,4.93
2022-11-08T16:41:00.279Z,7.20
2022-11-08T16:46:07.128Z,5.22
2022-11-08T16:51:16.751Z,7.60
2022-11-08T16:56:18.473Z,6.35
2022-11-08T17:01:33.307Z,5.85
2022-11-08T17:06:35.098Z,9.20
2022-11-08T17:11:38.634Z,7.90
2022-11-08T17:16:40.332Z,7.22
2022-11-08T17:21:45.040Z,8.27
2022-11-08T17:26:47.605Z,5.50
2022-11-08T17:31:49.833Z,10.90
2022-11-08T17:36:52.904Z,10.05
2022-11-08T17:41:54.625Z,13.77
2022-11-08T17:46:56.447Z,11.50
2022-11-08T17:51:58.262Z,11.45
2022-11-08T17:57:00.072Z,14.27
2022-11-08T18:02:02.020Z,10.18
2022-11-08T18:07:04.157Z,6.70
2022-11-08T18:12:06.216Z,10.63
2022-11-08T18:17:08.277Z,8.45
2022-11-08T18:22:10.781Z,9.55
2022-11-08T18:27:12.569Z,8.27
2022-11-08T18:32:14.330Z,12.57
2022-11-08T18:37:16.112Z,13.43
2022-11-08T18:42:17.796Z,6.85
2022-11-08T18:47:19.912Z,19.02
2022-11-08T18:52:21.721Z,11.95
2022-11-08T18:57:23.415Z,13.32
2022-11-08T19:02:25.216Z,15.65
2022-11-08T19:07:27.653Z,11.40
2022-11-08T19:12:29.914Z,13.32
2022-11-08T19:17:32.967Z,13.55
2022-11-08T19:22:34.659Z,16.77
2022-11-08T19:27:36.379Z,12.45
2022-11-08T19:32:38.124Z,8.15
2022-11-08T19:37:39.986Z,13.25
2022-11-08T19:42:41.707Z,17.23
2022-11-08T19:47:43.452Z,11.27
2022-11-08T19:52:45.190Z,12.13
2022-11-08T19:57:47.519Z,16.20
2022-11-08T20:02:50.940Z,12.45
2022-11-08T20:07:52.600Z,13.00
2022-11-08T20:12:54.320Z,13.15
2022-11-08T20:17:55.988Z,9.55
2022-11-08T20:22:57.753Z,8.23
2022-11-08T20:27:59.520Z,11.63
2022-11-08T20:33:01.255Z,10.35
2022-11-08T20:38:02.916Z,10.27
2022-11-08T20:43:04.616Z,10.98
2022-11-08T20:48:06.771Z,8.13
2022-11-08T20:53:08.617Z,9.05
2022-11-08T20:58:10.325Z,10.13
2022-11-08T21:03:18.701Z,11.00
2022-11-08T21:08:58.545Z,9.88
2022-11-08T21:13:44.173Z,10.25
2022-11-08T21:18:45.888Z,15.30
2022-11-08T21:23:48.269Z,14.13
2022-11-08T21:28:50.003Z,13.45
2022-11-08T21:33:52.421Z,11.38
2022-11-08T21:38:54.269Z,9.10
2022-11-08T21:43:55.918Z,8.95
2022-11-08T21:49:00.191Z,10.48
2022-11-08T21:54:01.848Z,12.32
2022-11-08T21:59:03.863Z,14.55
2022-11-08T22:04:05.523Z,10.57
2022-11-08T22:09:07.175Z,12.57
2022-11-08T22:14:08.852Z,10.18
2022-11-08T22:19:10.762Z,14.40
2022-11-08T22:24:15.021Z,10.70
2022-11-08T22:29:17.309Z,14.52
2022-11-08T22:34:19.042Z,10.63
2022-11-08T22:39:22.827Z,12.60
2022-11-08T22:44:24.678Z,14.45
2022-11-08T22:49:26.340Z,11.38
2022-11-08T22:54:28.049Z,13.15
2022-11-08T22:59:29.749Z,14.07
2022-11-08T23:04:31.443Z,13.77
2022-11-08T23:09:33.205Z,16.25
2022-11-08T23:14:53.579Z,11.63
2022-11-08T23:20:13.687Z,12.18
2022-11-08T23:25:15.460Z,10.45
2022-11-08T23:30:36.581Z,14.05
2022-11-08T23:35:38.317Z,9.80
2022-11-08T23:40:58.595Z,12.38
2022-11-08T23:46:08.592Z,9.88
2022-11-08T23:51:10.326Z,10.45
2022-11-08T23:56:20.168Z,16.30
